Terminal Aerodrome Forecast
Issued by NWS North Platte, NE

Home | Current Version | Previous Version | Graphics & Text | Print | Product List | Glossary On
Versions: 1 2 3 4 5 6 7 8 9 10 11 12 13
000
FTUS43 KLBF 250500
TAFVTN
TAF
KVTN 250526Z 2506/2606 33025G35KT P6SM BKN030 OVC040
     FM251200 32014G20KT P6SM SCT030 OVC040
     FM252100 30009KT P6SM SCT200
     FM260000 23006KT P6SM OVC120=

USA.gov is the U.S. government's official web portal to all federal, state and local government web resources and services.